createdAt,value
2022-08-05T00:00:48.351Z,99895.69
2022-08-05T00:01:52.714Z,99896.06
2022-08-05T00:02:55.079Z,99893.22
2022-08-05T00:03:57.726Z,99899.25
2022-08-05T00:05:00.001Z,99887.06
2022-08-05T00:06:29.017Z,99891.91
2022-08-05T00:08:00.765Z,99889.06
2022-08-05T00:08:52.947Z,99888.25
2022-08-05T00:09:55.191Z,99890.63
2022-08-05T00:11:00.846Z,99893.84
2022-08-05T00:12:03.929Z,99889.72
2022-08-05T00:13:07.054Z,99886.03
2022-08-05T00:14:20.872Z,99886.84
2022-08-05T00:15:56.074Z,99881.19
2022-08-05T00:16:52.497Z,99883.22
2022-08-05T00:17:55.955Z,99884.38
2022-08-05T00:18:58.157Z,99885.19
2022-08-05T00:20:01.777Z,99883.13
2022-08-05T00:21:05.361Z,99891.22
2022-08-05T00:22:11.087Z,99891.63
2022-08-05T00:23:13.835Z,99882.22
2022-08-05T00:24:24.069Z,99887.84
2022-08-05T00:25:27.544Z,99889.03
2022-08-05T00:26:51.875Z,99889.44
2022-08-05T00:27:55.328Z,99882.13
2022-08-05T00:28:58.636Z,99885.41
2022-08-05T00:30:03.218Z,99888.25
2022-08-05T00:31:07.563Z,99884.16
2022-08-05T00:32:15.428Z,99881.31
2022-08-05T00:34:53.308Z,99884.91
2022-08-05T00:34:55.989Z,99880.47
2022-08-05T00:36:15.089Z,99880.47
2022-08-05T00:37:26.259Z,99874.38
2022-08-05T00:38:28.649Z,99881.63
2022-08-05T00:39:41.345Z,99882.00
2022-08-05T00:40:53.241Z,99885.66
2022-08-05T00:41:55.932Z,99878.75
2022-08-05T00:42:59.901Z,99877.53
2022-08-05T00:44:02.566Z,99877.13
2022-08-05T00:45:08.805Z,99886.38
2022-08-05T00:46:14.089Z,99875.81
2022-08-05T00:47:16.813Z,99880.72
2022-08-05T00:48:27.557Z,99878.28
2022-08-05T00:49:44.442Z,99886.31
2022-08-05T00:50:53.650Z,99877.41
2022-08-05T00:51:55.837Z,99874.91
2022-08-05T00:52:58.226Z,99876.91
2022-08-05T00:54:03.029Z,99880.97
2022-08-05T00:55:06.015Z,99879.72
2022-08-05T00:56:08.937Z,99875.63
2022-08-05T00:57:11.234Z,99878.88
2022-08-05T00:58:17.110Z,99877.25
2022-08-05T00:59:21.437Z,99876.03
2022-08-05T01:00:25.831Z,99874.38
2022-08-05T01:01:42.685Z,99874.78
2022-08-05T01:02:50.613Z,99877.97
2022-08-05T01:03:52.859Z,99869.88
2022-08-05T01:04:55.069Z,99875.13
2022-08-05T01:05:57.790Z,99874.66
2022-08-05T01:07:00.784Z,99869.00
2022-08-05T01:08:40.620Z,99879.53
2022-08-05T01:09:30.386Z,99872.22
2022-08-05T01:10:57.988Z,99879.53
2022-08-05T01:12:18.182Z,99871.41
2022-08-05T01:13:58.951Z,99871.78
2022-08-05T01:15:06.169Z,99877.03
2022-08-05T01:17:10.879Z,99874.56
2022-08-05T01:18:21.349Z,99872.97
2022-08-05T01:19:46.358Z,99876.97
2022-08-05T01:21:25.837Z,99868.44
2022-08-05T01:23:14.942Z,99870.84
2022-08-05T01:24:33.964Z,99875.28
2022-08-05T01:26:09.766Z,99874.88
2022-08-05T01:27:37.096Z,99869.97
2022-08-05T01:29:05.423Z,99865.47
2022-08-05T01:30:12.410Z,99864.63
2022-08-05T01:31:44.558Z,99872.31
2022-08-05T01:32:49.547Z,99862.63
2022-08-05T01:34:15.204Z,99869.50
2022-08-05T01:35:50.779Z,99865.78
2022-08-05T01:36:53.839Z,99864.53
2022-08-05T01:37:59.663Z,99860.75
2022-08-05T01:39:02.832Z,99860.38
2022-08-05T01:40:09.057Z,99859.56
2022-08-05T01:41:15.362Z,99862.78
2022-08-05T01:42:21.604Z,99860.31
2022-08-05T01:43:27.043Z,99857.88
2022-08-05T01:44:35.262Z,99859.06
2022-08-05T01:45:43.085Z,99865.50
2022-08-05T01:46:46.691Z,99854.56
2022-08-05T01:47:54.402Z,99857.78
2022-08-05T01:49:00.613Z,99853.31
2022-08-05T01:50:29.710Z,99851.28
2022-08-05T01:51:36.053Z,99858.59
2022-08-05T01:52:42.943Z,99860.63
2022-08-05T01:53:56.898Z,99859.38
2022-08-05T01:55:05.676Z,99856.88
2022-08-05T01:56:11.408Z,99863.38
2022-08-05T01:58:29.819Z,99855.28
2022-08-05T01:58:45.434Z,99848.84
2022-08-05T01:59:56.795Z,99854.50
2022-08-05T02:01:03.333Z,99853.31
2022-08-05T02:02:06.916Z,99848.84
2022-08-05T02:03:32.129Z,99851.22
2022-08-05T02:04:38.352Z,99849.97
2022-08-05T02:05:44.174Z,99845.91
2022-08-05T02:06:51.015Z,99847.91
2022-08-05T02:08:00.030Z,99841.88
2022-08-05T02:09:04.775Z,99841.47
2022-08-05T02:10:08.645Z,99842.31
2022-08-05T02:11:12.829Z,99838.22
2022-08-05T02:12:51.689Z,99833.75
2022-08-05T02:14:02.855Z,99843.91
2022-08-05T02:15:26.355Z,99834.16
2022-08-05T02:16:44.720Z,99839.00
2022-08-05T02:18:32.321Z,99827.69
2022-08-05T02:19:36.017Z,99829.69
2022-08-05T02:20:58.627Z,99829.25
2022-08-05T02:22:26.597Z,99828.81
2022-08-05T02:23:33.538Z,99821.97
2022-08-05T02:24:39.216Z,99821.50
2022-08-05T02:25:49.714Z,99822.72
2022-08-05T02:27:00.395Z,99823.47
2022-08-05T02:28:14.560Z,99813.75
2022-08-05T02:29:24.305Z,99824.19
2022-08-05T02:30:54.250Z,99818.47
2022-08-05T02:31:59.397Z,99816.41
2022-08-05T02:33:08.634Z,99822.41
2022-08-05T02:34:15.963Z,99816.66
2022-08-05T02:35:28.007Z,99822.25
2022-08-05T02:36:39.252Z,99812.44
2022-08-05T02:37:47.788Z,99813.19
2022-08-05T02:38:57.718Z,99814.34
2022-08-05T02:40:02.524Z,99812.25
2022-08-05T02:41:17.187Z,99813.41
2022-08-05T02:42:25.857Z,99814.53
2022-08-05T02:43:30.401Z,99803.16
2022-08-05T02:44:39.627Z,99807.13
2022-08-05T02:45:52.623Z,99807.06
2022-08-05T02:47:00.681Z,99806.19
2022-08-05T02:48:11.796Z,99811.78
2022-08-05T02:49:18.283Z,99814.91
2022-08-05T02:50:25.121Z,99812.84
2022-08-05T02:52:02.945Z,99809.56
2022-08-05T02:52:51.931Z,99812.66
2022-08-05T02:53:54.988Z,99799.31
2022-08-05T02:55:10.933Z,99805.69
2022-08-05T02:56:18.927Z,99812.09
2022-08-05T02:58:09.882Z,99808.00
2022-08-05T02:58:45.270Z,99806.34
2022-08-05T02:59:54.561Z,99810.72
2022-08-05T03:01:01.832Z,99815.91
2022-08-05T03:02:04.871Z,99816.22
2022-08-05T03:03:10.524Z,99821.00
2022-08-05T03:04:15.780Z,99815.25
2022-08-05T03:06:52.686Z,99827.75
2022-08-05T03:06:56.225Z,99826.06
2022-08-05T03:08:08.550Z,99831.25
2022-08-05T03:09:15.918Z,99836.00
2022-08-05T03:10:29.221Z,99840.00
2022-08-05T03:11:55.239Z,99834.28
2022-08-05T03:12:54.427Z,99828.59
2022-08-05T03:14:03.238Z,99835.41
2022-08-05T03:15:09.405Z,99830.84
2022-08-05T03:16:11.899Z,99836.84
2022-08-05T03:17:17.991Z,99839.59
2022-08-05T03:18:24.639Z,99837.16
2022-08-05T03:19:34.134Z,99837.91
2022-08-05T03:20:39.016Z,99830.16
2022-08-05T03:21:50.803Z,99828.88
2022-08-05T03:22:57.184Z,99823.63
2022-08-05T03:24:00.866Z,99830.00
2022-08-05T03:25:32.401Z,99835.19
2022-08-05T03:26:31.543Z,99836.75
2022-08-05T03:27:57.957Z,99845.97
2022-08-05T03:28:57.090Z,99842.69
2022-08-05T03:30:08.462Z,99845.44
2022-08-05T03:31:55.277Z,99839.34
2022-08-05T03:32:34.942Z,99838.06
2022-08-05T03:33:50.842Z,99837.59
2022-08-05T03:34:53.967Z,99840.72
2022-08-05T03:35:57.634Z,99845.91
2022-08-05T03:37:00.845Z,99843.00
2022-08-05T03:38:04.189Z,99852.66
2022-08-05T03:39:08.299Z,99845.75
2022-08-05T03:40:31.372Z,99844.47
2022-08-05T03:41:45.162Z,99844.03
2022-08-05T03:42:52.031Z,99839.09
2022-08-05T03:44:09.025Z,99838.66
2022-08-05T03:45:22.332Z,99838.19
2022-08-05T03:46:29.841Z,99842.19
2022-08-05T03:47:35.490Z,99844.09
2022-08-05T03:48:45.429Z,99843.28
2022-08-05T03:49:52.156Z,99848.47
2022-08-05T03:52:37.398Z,99846.38
2022-08-05T03:55:00.252Z,99848.69
2022-08-05T03:55:51.843Z,99850.75
2022-08-05T03:56:11.688Z,99849.84
2022-08-05T03:57:41.993Z,99853.38
2022-08-05T03:58:51.102Z,99850.94
2022-08-05T04:00:00.296Z,99853.31
2022-08-05T04:01:08.526Z,99860.94
2022-08-05T04:02:17.415Z,99858.84
2022-08-05T04:04:09.132Z,99860.03
2022-08-05T04:05:09.559Z,99853.13
2022-08-05T04:06:17.811Z,99856.31
2022-08-05T04:07:24.731Z,99864.31
2022-08-05T04:08:36.229Z,99857.03
2022-08-05T04:09:53.512Z,99860.19
2022-08-05T04:10:57.667Z,99860.19
2022-08-05T04:12:02.583Z,99865.03
2022-08-05T04:13:06.197Z,99860.56
2022-08-05T04:14:09.218Z,99864.56
2022-08-05T04:15:20.622Z,99860.94
2022-08-05T04:16:32.457Z,99863.75
2022-08-05T04:17:55.395Z,99865.78
2022-08-05T04:18:58.249Z,99862.94
2022-08-05T04:20:02.586Z,99853.66
2022-08-05T04:21:07.268Z,99859.28
2022-08-05T04:22:13.739Z,99857.31
2022-08-05T04:24:04.801Z,99855.66
2022-08-05T04:24:53.241Z,99860.13
2022-08-05T04:26:00.641Z,99852.47
2022-08-05T04:27:03.348Z,99847.22
2022-08-05T04:28:11.404Z,99848.38
2022-08-05T04:29:15.051Z,99846.38
2022-08-05T04:30:17.352Z,99845.19
2022-08-05T04:31:20.091Z,99848.00
2022-08-05T04:32:30.628Z,99852.84
2022-08-05T04:34:18.905Z,99850.84
2022-08-05T04:34:57.758Z,99844.50
2022-08-05T04:36:15.849Z,99851.75
2022-08-05T04:38:01.472Z,99845.75
2022-08-05T04:38:44.746Z,99851.84
2022-08-05T04:39:53.383Z,99843.84
2022-08-05T04:40:57.956Z,99858.06
2022-08-05T04:42:01.750Z,99850.03
2022-08-05T04:43:06.545Z,99855.75
2022-08-05T04:44:24.482Z,99863.13
2022-08-05T04:45:48.134Z,99858.75
2022-08-05T04:46:51.364Z,99859.69
2022-08-05T04:48:03.390Z,99866.22
2022-08-05T04:49:12.434Z,99859.84
2022-08-05T04:50:37.386Z,99867.22
2022-08-05T04:51:40.427Z,99861.34
2022-08-05T04:52:46.035Z,99865.88
2022-08-05T04:53:49.245Z,99864.78
2022-08-05T04:54:51.456Z,99867.69
2022-08-05T04:56:15.290Z,99866.56
2022-08-05T04:57:16.964Z,99862.28
2022-08-05T04:58:21.650Z,99864.00
2022-08-05T04:59:38.546Z,99865.34
2022-08-05T05:00:41.714Z,99863.06
2022-08-05T05:02:35.171Z,99872.88
2022-08-05T05:03:07.958Z,99875.50
2022-08-05T05:04:10.191Z,99866.75
2022-08-05T05:05:26.209Z,99868.13
2022-08-05T05:06:36.100Z,99873.53
2022-08-05T05:07:52.870Z,99866.03
2022-08-05T05:08:58.569Z,99869.00
2022-08-05T05:10:06.340Z,99874.06
2022-08-05T05:11:08.938Z,99872.56
2022-08-05T05:12:11.658Z,99870.28
2022-08-05T05:13:16.192Z,99874.84
2022-08-05T05:14:19.729Z,99877.88
2022-08-05T05:15:57.608Z,99873.97
2022-08-05T05:16:56.210Z,99878.22
2022-08-05T05:17:58.559Z,99877.53
2022-08-05T05:19:18.507Z,99880.84
2022-08-05T05:20:21.784Z,99870.94
2022-08-05T05:21:30.399Z,99873.88
2022-08-05T05:22:35.774Z,99871.97
2022-08-05T05:24:04.163Z,99870.91
2022-08-05T05:25:16.610Z,99867.84
2022-08-05T05:26:19.529Z,99872.06
2022-08-05T05:27:41.385Z,99868.13
2022-08-05T05:28:47.550Z,99869.84
2022-08-05T05:30:04.339Z,99876.88
2022-08-05T05:31:08.803Z,99876.59
2022-08-05T05:32:12.398Z,99875.94
2022-08-05T05:33:17.036Z,99869.97
2022-08-05T05:34:24.144Z,99882.22
2022-08-05T05:35:34.456Z,99880.72
2022-08-05T05:36:40.440Z,99875.97
2022-08-05T05:37:59.624Z,99891.91
2022-08-05T05:39:03.618Z,99885.16
2022-08-05T05:40:07.365Z,99890.13
2022-08-05T05:41:09.831Z,99878.88
2022-08-05T05:42:14.472Z,99877.34
2022-08-05T05:43:22.067Z,99883.53
2022-08-05T05:44:46.011Z,99876.34
2022-08-05T05:45:48.561Z,99880.06
2022-08-05T05:46:53.664Z,99882.59
2022-08-05T05:48:06.852Z,99879.78
2022-08-05T05:49:22.949Z,99880.66
2022-08-05T05:50:25.925Z,99882.34
2022-08-05T05:51:28.285Z,99886.91
2022-08-05T05:52:37.920Z,99884.09
2022-08-05T05:53:54.622Z,99876.47
2022-08-05T05:55:02.281Z,99873.28
2022-08-05T05:56:09.831Z,99878.66
2022-08-05T05:57:23.401Z,99875.84
2022-08-05T05:58:31.475Z,99879.53
2022-08-05T05:59:40.412Z,99887.72
2022-08-05T06:00:45.896Z,99891.81
2022-08-05T06:01:57.278Z,99901.63
2022-08-05T06:03:02.508Z,99906.59
2022-08-05T06:04:05.129Z,99917.19
2022-08-05T06:05:10.372Z,99926.97
2022-08-05T06:06:18.644Z,99931.13
2022-08-05T06:07:24.985Z,99938.47
2022-08-05T06:08:44.569Z,99942.16
2022-08-05T06:10:01.493Z,99940.97
2022-08-05T06:11:08.197Z,99939.41
2022-08-05T06:12:10.390Z,99925.19
2022-08-05T06:13:14.346Z,99914.66
2022-08-05T06:14:16.577Z,99913.44
2022-08-05T06:15:24.231Z,99922.38
2022-08-05T06:16:30.386Z,99952.91
2022-08-05T06:17:53.447Z,99972.03
2022-08-05T06:18:56.666Z,99985.09
2022-08-05T06:20:04.744Z,99982.22
2022-08-05T06:21:07.962Z,99956.13
2022-08-05T06:22:33.694Z,99944.66
2022-08-05T06:23:43.690Z,99944.66
2022-08-05T06:24:48.111Z,99960.97
2022-08-05T06:26:12.495Z,99972.31
2022-08-05T06:28:09.358Z,99975.13
2022-08-05T06:28:38.920Z,99964.06
2022-08-05T06:29:49.620Z,99967.72
2022-08-05T06:31:11.100Z,99965.19
2022-08-05T06:32:25.446Z,99969.22
2022-08-05T06:34:02.972Z,99976.50
2022-08-05T06:34:53.627Z,99978.88
2022-08-05T06:36:08.056Z,99982.09
2022-08-05T06:37:12.358Z,99977.97
2022-08-05T06:38:15.025Z,99976.66
2022-08-05T06:39:18.394Z,99971.72
2022-08-05T06:40:27.884Z,99973.25
2022-08-05T06:41:34.765Z,99969.13
2022-08-05T06:42:42.858Z,99978.06
2022-08-05T06:43:58.071Z,99982.47
2022-08-05T06:45:05.549Z,99970.59
2022-08-05T06:46:10.726Z,99975.84
2022-08-05T06:47:30.041Z,99983.97
2022-08-05T06:48:56.187Z,99985.56
2022-08-05T06:50:00.480Z,99989.22
2022-08-05T06:51:09.961Z,99980.19
2022-08-05T06:52:37.677Z,99981.38
2022-08-05T06:53:40.544Z,99988.72
2022-08-05T06:54:42.788Z,99987.84
2022-08-05T06:55:45.000Z,99990.28
2022-08-05T06:56:54.631Z,99986.97
2022-08-05T06:58:20.399Z,99996.75
2022-08-05T06:59:38.836Z,100001.25
2022-08-05T07:00:44.505Z,99997.59
2022-08-05T07:01:46.993Z,100003.69
2022-08-05T07:02:56.265Z,99994.28
2022-08-05T07:03:58.555Z,100007.38
2022-08-05T07:05:04.000Z,100007.72
2022-08-05T07:06:19.183Z,100008.56
2022-08-05T07:07:24.114Z,100008.94
2022-08-05T07:08:37.947Z,100012.19
2022-08-05T07:09:44.171Z,100009.69
2022-08-05T07:10:53.222Z,100018.69
2022-08-05T07:12:00.407Z,100015.78
2022-08-05T07:13:57.211Z,100009.59
2022-08-05T07:15:02.989Z,100010.72
2022-08-05T07:16:39.437Z,100010.22
2022-08-05T07:18:01.236Z,99999.50
2022-08-05T07:19:09.551Z,100001.03
2022-08-05T07:20:32.495Z,100000.13
2022-08-05T07:22:00.778Z,100004.09
2022-08-05T07:22:56.491Z,100008.09
2022-08-05T07:23:58.991Z,100011.22
2022-08-05T07:25:23.870Z,100012.78
2022-08-05T07:26:31.020Z,100020.41
2022-08-05T07:27:58.740Z,100020.28
2022-08-05T07:28:57.761Z,100016.06
2022-08-05T07:30:24.043Z,100011.47
2022-08-05T07:31:54.260Z,100016.72
2022-08-05T07:32:53.320Z,100016.22
2022-08-05T07:33:55.851Z,100017.41
2022-08-05T07:35:02.280Z,100014.47
2022-08-05T07:36:24.714Z,100019.34
2022-08-05T07:37:37.466Z,100009.06
2022-08-05T07:38:43.255Z,100011.44
2022-08-05T07:40:26.480Z,100010.13
2022-08-05T07:42:08.865Z,100023.16
2022-08-05T07:42:36.227Z,100022.22
2022-08-05T07:43:38.695Z,100024.13
2022-08-05T07:44:41.215Z,100026.50
2022-08-05T07:45:57.029Z,100028.06
2022-08-05T07:47:00.640Z,100020.59
2022-08-05T07:48:13.508Z,100030.31
2022-08-05T07:49:15.692Z,100036.34
2022-08-05T07:50:17.962Z,100037.09
2022-08-05T07:51:23.713Z,100036.59
2022-08-05T07:52:41.704Z,100047.56
2022-08-05T07:53:50.413Z,100043.88
2022-08-05T07:54:54.285Z,100049.16
2022-08-05T07:56:06.237Z,100041.38
2022-08-05T07:57:41.944Z,100044.59
2022-08-05T07:58:55.080Z,100038.41
2022-08-05T08:00:01.395Z,100031.81
2022-08-05T08:01:06.164Z,100036.31
2022-08-05T08:02:16.523Z,100043.22
2022-08-05T08:03:21.563Z,100053.81
2022-08-05T08:04:38.144Z,100055.41
2022-08-05T08:05:49.476Z,100058.63
2022-08-05T08:06:52.069Z,100057.72
2022-08-05T08:07:59.591Z,100054.44
2022-08-05T08:09:02.863Z,100056.94
2022-08-05T08:10:06.529Z,100066.34
2022-08-05T08:11:09.277Z,100057.84
2022-08-05T08:12:37.419Z,100066.06
2022-08-05T08:13:49.595Z,100067.44
2022-08-05T08:15:04.366Z,100070.38
2022-08-05T08:16:35.376Z,100077.44
2022-08-05T08:17:29.156Z,100074.72
2022-08-05T08:18:32.493Z,100072.34
2022-08-05T08:20:21.615Z,100070.78
2022-08-05T08:21:03.134Z,100067.56
2022-08-05T08:22:07.438Z,100073.75
2022-08-05T08:24:02.093Z,100078.28
2022-08-05T08:24:50.974Z,100072.16
2022-08-05T08:26:02.481Z,100066.81
2022-08-05T08:27:07.764Z,100066.81
2022-08-05T08:28:18.447Z,100067.63
2022-08-05T08:29:29.579Z,100075.34
2022-08-05T08:30:47.748Z,100066.66
2022-08-05T08:31:52.439Z,100068.69
2022-08-05T08:32:54.611Z,100062.84
2022-08-05T08:33:56.837Z,100061.97
2022-08-05T08:34:59.278Z,100068.00
2022-08-05T08:36:29.755Z,100078.19
2022-08-05T08:37:27.886Z,100071.13
2022-08-05T08:38:35.897Z,100077.63
2022-08-05T08:39:38.459Z,100078.38
2022-08-05T08:40:51.927Z,100074.16
2022-08-05T08:41:59.754Z,100085.94
2022-08-05T08:45:04.479Z,100076.00
2022-08-05T08:45:19.918Z,100071.38
2022-08-05T08:45:54.351Z,100071.22
2022-08-05T08:46:56.921Z,100075.19
2022-08-05T08:48:12.364Z,100075.56
2022-08-05T08:50:05.964Z,100077.50
2022-08-05T08:51:22.333Z,100081.47
2022-08-05T08:52:14.401Z,100086.25
2022-08-05T08:53:18.297Z,100090.19
2022-08-05T08:54:27.286Z,100088.88
2022-08-05T08:56:02.421Z,100091.66
2022-08-05T08:56:53.204Z,100091.94
2022-08-05T08:58:00.846Z,100082.78
2022-08-05T08:59:09.793Z,100084.34
2022-08-05T09:00:19.407Z,100083.00
2022-08-05T09:01:21.891Z,100090.28
2022-08-05T09:02:26.856Z,100093.88
2022-08-05T09:03:40.380Z,100089.31
2022-08-05T09:05:16.836Z,100080.94
2022-08-05T09:06:11.126Z,100084.19
2022-08-05T09:07:28.184Z,100078.34
2022-08-05T09:08:31.514Z,100076.28
2022-08-05T09:09:35.898Z,100085.63
2022-08-05T09:10:46.930Z,100084.81
2022-08-05T09:11:52.416Z,100082.28
2022-08-05T09:12:57.184Z,100080.59
2022-08-05T09:14:54.728Z,100075.19
2022-08-05T09:15:30.455Z,100072.66
2022-08-05T09:16:33.338Z,100078.34
2022-08-05T09:17:43.057Z,100077.06
2022-08-05T09:18:51.936Z,100078.34
2022-08-05T09:20:05.209Z,100092.72
2022-08-05T09:21:11.755Z,100095.25
2022-08-05T09:22:51.892Z,100096.13
2022-08-05T09:24:13.556Z,100091.75
2022-08-05T09:25:24.577Z,100090.56
2022-08-05T09:26:48.735Z,100086.41
2022-08-05T09:28:04.149Z,100082.28
2022-08-05T09:29:09.063Z,100090.13
2022-08-05T09:30:16.310Z,100090.13
2022-08-05T09:31:44.208Z,100093.34
2022-08-05T09:32:51.687Z,100081.41
2022-08-05T09:34:01.318Z,100083.38
2022-08-05T09:35:26.913Z,100085.78
2022-08-05T09:36:56.234Z,100088.22
2022-08-05T09:38:12.808Z,100094.78
2022-08-05T09:39:22.516Z,100088.59
2022-08-05T09:40:52.689Z,100089.41
2022-08-05T09:42:00.940Z,100091.91
2022-08-05T09:43:08.483Z,100085.78
2022-08-05T09:44:11.169Z,100087.03
2022-08-05T09:46:04.586Z,100087.16
2022-08-05T09:46:38.099Z,100085.53
2022-08-05T09:47:56.552Z,100071.63
2022-08-05T09:49:07.845Z,100080.66
2022-08-05T09:50:38.232Z,100088.88
2022-08-05T09:51:44.006Z,100085.16
2022-08-05T09:52:58.078Z,100084.00
2022-08-05T09:54:01.518Z,100078.69
2022-08-05T09:55:58.644Z,100074.19
2022-08-05T09:56:37.910Z,100073.84
2022-08-05T09:57:46.072Z,100069.72
2022-08-05T09:59:01.746Z,100077.06
2022-08-05T10:00:16.919Z,100068.91
2022-08-05T10:01:31.709Z,100075.13
2022-08-05T10:02:38.401Z,100072.69
2022-08-05T10:03:58.844Z,100075.19
2022-08-05T10:05:08.834Z,100079.31
2022-08-05T10:06:15.708Z,100063.78
2022-08-05T10:07:19.990Z,100069.97
2022-08-05T10:08:37.635Z,100078.16
2022-08-05T10:10:14.212Z,100077.81
2022-08-05T10:11:17.724Z,100061.88
2022-08-05T10:12:31.712Z,100062.34
2022-08-05T10:13:47.728Z,100067.38
2022-08-05T10:14:54.346Z,100069.06
2022-08-05T10:15:58.875Z,100072.81
2022-08-05T10:17:37.444Z,100072.44
2022-08-05T10:18:38.503Z,100064.81
2022-08-05T10:20:03.718Z,100071.81
2022-08-05T10:21:11.938Z,100062.00
2022-08-05T10:22:29.850Z,100054.66
2022-08-05T10:23:55.352Z,100062.00
2022-08-05T10:24:58.822Z,100062.00
2022-08-05T10:26:14.575Z,100054.19
2022-08-05T10:27:18.150Z,100058.34
2022-08-05T10:28:30.540Z,100063.63
2022-08-05T10:30:41.348Z,100056.28
2022-08-05T10:32:50.703Z,100052.16
2022-08-05T10:32:54.505Z,100043.06
2022-08-05T10:33:45.720Z,100052.94
2022-08-05T10:34:55.850Z,100051.25
2022-08-05T10:36:04.547Z,100039.75
2022-08-05T10:37:06.841Z,100044.25
2022-08-05T10:38:11.736Z,100036.00
2022-08-05T10:39:24.791Z,100027.38
2022-08-05T10:40:57.742Z,100038.41
2022-08-05T10:42:32.597Z,100033.44
2022-08-05T10:43:43.485Z,100033.81
2022-08-05T10:44:47.177Z,100026.00
2022-08-05T10:46:06.215Z,100036.66
2022-08-05T10:47:26.897Z,100036.28
2022-08-05T10:48:56.700Z,100033.41
2022-08-05T10:50:20.837Z,100030.97
2022-08-05T10:51:57.721Z,100030.97
2022-08-05T10:53:03.334Z,100033.81
2022-08-05T10:54:28.212Z,100037.50
2022-08-05T10:55:32.906Z,100039.56
2022-08-05T10:56:57.856Z,100043.72
2022-08-05T10:58:11.203Z,100046.59
2022-08-05T11:00:04.183Z,100044.97
2022-08-05T11:00:55.294Z,100042.09
2022-08-05T11:02:14.649Z,100043.72
2022-08-05T11:03:31.312Z,100037.16
2022-08-05T11:04:47.075Z,100043.34
2022-08-05T11:06:15.449Z,100045.41
2022-08-05T11:07:19.223Z,100038.88
2022-08-05T11:08:37.918Z,100039.66
2022-08-05T11:09:47.247Z,100043.00
2022-08-05T11:10:50.426Z,100039.28
2022-08-05T11:12:03.598Z,100042.16
2022-08-05T11:13:06.971Z,100039.75
2022-08-05T11:14:12.171Z,100041.00
2022-08-05T11:15:23.524Z,100041.44
2022-08-05T11:16:56.654Z,100047.31
2022-08-05T11:18:09.654Z,100043.25
2022-08-05T11:20:17.458Z,100043.69
2022-08-05T11:20:52.712Z,100047.84
2022-08-05T11:21:56.476Z,100054.00
2022-08-05T11:23:20.541Z,100042.16
2022-08-05T11:24:29.965Z,100039.75
2022-08-05T11:26:04.215Z,100038.91
2022-08-05T11:27:45.707Z,100045.09
2022-08-05T11:28:55.093Z,100040.59
2022-08-05T11:30:01.836Z,100041.84
2022-08-05T11:31:06.598Z,100033.34
2022-08-05T11:32:29.218Z,100042.75
2022-08-05T11:33:46.206Z,100049.75
2022-08-05T11:34:51.312Z,100039.50
2022-08-05T11:36:07.966Z,100046.09
2022-08-05T11:38:27.961Z,100045.25
2022-08-05T11:38:51.006Z,100047.34
2022-08-05T11:39:55.287Z,100056.75
2022-08-05T11:41:34.573Z,100051.00
2022-08-05T11:42:37.999Z,100049.41
2022-08-05T11:44:05.732Z,100043.22
2022-08-05T11:45:23.291Z,100048.13
2022-08-05T11:47:10.565Z,100044.84
2022-08-05T11:48:13.996Z,100041.97
2022-08-05T11:49:19.229Z,100036.22
2022-08-05T11:50:21.536Z,100037.47
2022-08-05T11:51:44.380Z,100036.63
2022-08-05T11:52:48.919Z,100038.25
2022-08-05T11:53:53.491Z,100029.66
2022-08-05T11:55:07.408Z,100032.53
2022-08-05T11:56:14.425Z,100028.84
2022-08-05T11:57:25.530Z,100039.88
2022-08-05T11:58:39.933Z,100039.88
2022-08-05T11:59:50.183Z,100027.59
2022-08-05T12:01:20.387Z,100029.19
2022-08-05T12:02:33.063Z,100030.03
2022-08-05T12:03:59.711Z,100018.53
2022-08-05T12:05:07.878Z,100022.66
2022-08-05T12:06:12.035Z,100009.91
2022-08-05T12:07:16.308Z,100027.94
2022-08-05T12:08:20.399Z,100018.06
2022-08-05T12:09:38.616Z,100016.44
2022-08-05T12:10:50.626Z,100016.00
2022-08-05T12:11:54.885Z,100022.13
2022-08-05T12:13:15.985Z,100018.00
2022-08-05T12:14:19.331Z,100021.66
2022-08-05T12:15:38.203Z,100013.88
2022-08-05T12:16:45.487Z,100016.28
2022-08-05T12:18:03.429Z,100026.53
2022-08-05T12:19:10.070Z,100016.28
2022-08-05T12:20:34.029Z,100012.25
2022-08-05T12:21:50.012Z,100013.94
2022-08-05T12:22:52.180Z,100009.00
2022-08-05T12:24:00.131Z,100014.41
2022-08-05T12:25:07.616Z,100014.41
2022-08-05T12:26:09.954Z,100009.91
2022-08-05T12:27:25.399Z,100007.03
2022-08-05T12:28:36.736Z,100008.28
2022-08-05T12:29:39.310Z,100005.03
2022-08-05T12:30:46.196Z,100006.31
2022-08-05T12:31:57.472Z,100007.56
2022-08-05T12:33:06.929Z,100010.88
2022-08-05T12:34:16.411Z,99999.03
2022-08-05T12:35:24.694Z,100008.88
2022-08-05T12:36:43.181Z,100009.34
2022-08-05T12:37:47.159Z,100004.03
2022-08-05T12:38:51.048Z,99999.50
2022-08-05T12:40:03.503Z,100000.75
2022-08-05T12:41:14.757Z,100002.84
2022-08-05T12:42:20.769Z,100005.34
2022-08-05T12:43:23.087Z,100014.78
2022-08-05T12:44:33.566Z,100007.78
2022-08-05T12:45:42.670Z,100003.75
2022-08-05T12:46:54.339Z,99996.72
2022-08-05T12:48:17.724Z,99993.03
2022-08-05T12:49:19.032Z,99986.50
2022-08-05T12:50:21.606Z,99998.78
2022-08-05T12:52:12.981Z,99984.88
2022-08-05T12:52:59.753Z,99989.78
2022-08-05T12:54:03.727Z,99995.13
2022-08-05T12:55:26.576Z,99984.50
2022-08-05T12:56:35.140Z,99981.63
2022-08-05T12:58:38.248Z,99987.03
2022-08-05T12:59:23.872Z,99987.03
2022-08-05T13:02:03.203Z,99989.91
2022-08-05T13:02:09.898Z,99985.84
2022-08-05T13:03:14.828Z,99994.09
2022-08-05T13:04:21.075Z,99991.69
2022-08-05T13:05:24.808Z,99995.00
2022-08-05T13:06:51.538Z,99993.81
2022-08-05T13:07:59.880Z,99985.66
2022-08-05T13:09:09.227Z,99988.16
2022-08-05T13:10:19.639Z,99988.59
2022-08-05T13:12:03.268Z,99989.47
2022-08-05T13:12:57.962Z,99985.44
2022-08-05T13:14:05.633Z,99993.69
2022-08-05T13:15:16.566Z,99982.66
2022-08-05T13:16:27.818Z,99982.66
2022-08-05T13:17:41.725Z,99984.34
2022-08-05T13:18:58.761Z,99979.06
2022-08-05T13:20:10.014Z,99981.56
2022-08-05T13:21:13.753Z,99982.81
2022-08-05T13:22:28.025Z,99973.84
2022-08-05T13:23:32.134Z,99977.13
2022-08-05T13:24:57.632Z,99974.31
2022-08-05T13:26:01.211Z,99970.63
2022-08-05T13:27:03.931Z,99977.63
2022-08-05T13:28:06.920Z,99977.63
2022-08-05T13:29:13.194Z,99981.31
2022-08-05T13:30:36.140Z,99983.34
2022-08-05T13:32:04.856Z,99986.59
2022-08-05T13:33:04.631Z,99988.69
2022-08-05T13:34:21.797Z,99995.66
2022-08-05T13:35:42.805Z,99997.72
2022-08-05T13:36:45.824Z,99993.25
2022-08-05T13:37:55.718Z,99997.81
2022-08-05T13:38:58.119Z,99990.44
2022-08-05T13:40:14.995Z,99991.31
2022-08-05T13:41:19.151Z,99990.50
2022-08-05T13:42:25.485Z,99991.75
2022-08-05T13:43:43.373Z,99985.22
2022-08-05T13:44:51.502Z,99986.47
2022-08-05T13:45:53.687Z,99981.97
2022-08-05T13:47:04.687Z,99984.03
2022-08-05T13:48:57.409Z,99982.41
2022-08-05T13:49:35.267Z,99991.84
2022-08-05T13:50:37.697Z,99988.97
2022-08-05T13:51:46.503Z,99987.34
2022-08-05T13:52:50.031Z,99982.88
2022-08-05T13:53:52.335Z,99984.94
2022-08-05T13:55:01.134Z,99984.09